createdAt,value
2022-11-05T00:00:05.122Z,8.38
2022-11-05T00:01:06.852Z,8.47
2022-11-05T00:02:05.740Z,8.57
2022-11-05T00:03:05.054Z,8.69
2022-11-05T00:04:06.868Z,8.75
2022-11-05T00:05:05.873Z,8.72
2022-11-05T00:06:05.813Z,8.60
2022-11-05T00:07:05.833Z,8.54
2022-11-05T00:08:04.994Z,8.55
2022-11-05T00:09:07.165Z,8.64
2022-11-05T00:10:06.013Z,8.77
2022-11-05T00:11:05.084Z,8.82
2022-11-05T00:12:06.274Z,8.88
2022-11-05T00:13:05.773Z,8.88
2022-11-05T00:14:04.912Z,8.91
2022-11-05T00:15:06.243Z,8.98
2022-11-05T00:16:05.023Z,8.93
2022-11-05T00:17:05.633Z,8.90
2022-11-05T00:18:04.879Z,8.93
2022-11-05T00:19:05.619Z,8.87
2022-11-05T00:20:04.862Z,8.78
2022-11-05T00:21:06.285Z,8.67
2022-11-05T00:22:05.853Z,8.55
2022-11-05T00:23:04.845Z,8.45
2022-11-05T00:24:05.664Z,8.29
2022-11-05T00:25:05.573Z,8.23
2022-11-05T00:26:04.793Z,8.15
2022-11-05T00:27:05.642Z,8.11
2022-11-05T00:28:04.783Z,8.16
2022-11-05T00:29:04.770Z,8.21
2022-11-05T00:30:04.759Z,8.11
2022-11-05T00:31:06.300Z,8.13
2022-11-05T00:32:05.049Z,8.05
2022-11-05T00:33:04.790Z,8.04
2022-11-05T00:34:06.271Z,8.02
2022-11-05T00:35:04.859Z,8.23
2022-11-05T00:36:04.699Z,8.26
2022-11-05T00:37:05.508Z,8.33
2022-11-05T00:38:05.360Z,8.39
2022-11-05T00:39:04.729Z,8.47
2022-11-05T00:40:06.370Z,8.44
2022-11-05T00:41:05.692Z,8.44
2022-11-05T00:42:04.650Z,8.39
2022-11-05T00:43:05.469Z,8.39
2022-11-05T00:44:04.999Z,8.42
2022-11-05T00:45:06.454Z,8.24
2022-11-05T00:46:05.380Z,8.15
2022-11-05T00:47:04.590Z,8.31
2022-11-05T00:48:06.270Z,8.48
2022-11-05T00:49:06.010Z,8.64
2022-11-05T00:50:04.570Z,8.67
2022-11-05T00:51:05.369Z,8.75
2022-11-05T00:52:04.549Z,8.73
2022-11-05T00:53:06.498Z,8.77
2022-11-05T00:54:05.381Z,8.75
2022-11-05T00:55:04.499Z,8.60
2022-11-05T00:56:06.621Z,8.45
2022-11-05T00:57:05.721Z,8.44
2022-11-05T00:58:06.329Z,8.44
2022-11-05T00:59:05.232Z,8.38
2022-11-05T01:00:04.461Z,8.24
2022-11-05T01:01:05.770Z,8.24
2022-11-05T01:02:04.643Z,8.30
2022-11-05T01:03:05.331Z,8.41
2022-11-05T01:04:04.409Z,8.42
2022-11-05T01:05:05.750Z,8.45
2022-11-05T01:06:04.440Z,8.44
2022-11-05T01:07:04.380Z,8.26
2022-11-05T01:08:05.069Z,8.12
2022-11-05T01:09:04.410Z,8.20
2022-11-05T01:10:05.109Z,8.20
2022-11-05T01:11:05.130Z,8.29
2022-11-05T01:12:04.329Z,8.36
2022-11-05T01:13:08.824Z,8.52
2022-11-05T01:14:05.308Z,8.62
2022-11-05T01:15:04.301Z,8.70
2022-11-05T01:16:05.759Z,8.75
2022-11-05T01:17:04.569Z,8.78
2022-11-05T01:18:04.280Z,8.81
2022-11-05T01:19:05.742Z,8.78
2022-11-05T01:20:04.495Z,8.78
2022-11-05T01:21:04.230Z,8.63
2022-11-05T01:22:05.800Z,8.64
2022-11-05T01:23:10.296Z,8.66
2022-11-05T01:24:05.759Z,8.44
2022-11-05T01:25:04.260Z,8.33
2022-11-05T01:26:05.010Z,8.27
2022-11-05T01:27:04.990Z,8.29
2022-11-05T01:28:04.158Z,8.33
2022-11-05T01:29:05.010Z,8.33
2022-11-05T01:30:04.990Z,8.23
2022-11-05T01:31:04.960Z,8.16
2022-11-05T01:32:04.122Z,8.12
2022-11-05T01:33:05.720Z,8.18
2022-11-05T01:34:04.390Z,8.20
2022-11-05T01:35:04.100Z,8.13
2022-11-05T01:36:05.728Z,8.04
2022-11-05T01:37:05.070Z,8.01
2022-11-05T01:38:04.059Z,8.06
2022-11-05T01:39:05.692Z,8.13
2022-11-05T01:40:04.410Z,8.20
2022-11-05T01:41:04.020Z,8.21
2022-11-05T01:42:04.750Z,8.26
2022-11-05T01:43:04.053Z,8.29
2022-11-05T01:44:04.750Z,8.30
2022-11-05T01:45:03.979Z,8.41
2022-11-05T01:46:05.290Z,8.39
2022-11-05T01:47:04.608Z,8.36
2022-11-05T01:48:04.019Z,8.44
2022-11-05T01:49:05.269Z,8.62
2022-11-05T01:50:04.171Z,8.67
2022-11-05T01:51:03.934Z,8.73
2022-11-05T01:52:04.829Z,8.80
2022-11-05T01:53:03.910Z,8.87
2022-11-05T01:54:04.769Z,8.93
2022-11-05T01:55:03.880Z,8.81
2022-11-05T01:56:05.261Z,8.52
2022-11-05T01:57:04.000Z,8.29
2022-11-05T01:58:03.849Z,8.12
2022-11-05T01:59:05.320Z,7.94
2022-11-05T02:00:04.180Z,7.87
2022-11-05T02:01:04.612Z,7.79
2022-11-05T02:02:04.818Z,7.78
2022-11-05T02:03:03.824Z,7.80
2022-11-05T02:04:05.274Z,7.83
2022-11-05T02:05:03.989Z,7.72
2022-11-05T02:06:03.769Z,7.62
2022-11-05T02:07:04.720Z,7.59
2022-11-05T02:08:03.760Z,7.60
2022-11-05T02:09:05.360Z,7.59
2022-11-05T02:10:04.130Z,7.57
2022-11-05T02:11:04.540Z,7.26
2022-11-05T02:12:03.712Z,7.11
2022-11-05T02:13:05.239Z,7.16
2022-11-05T02:14:04.170Z,7.31
2022-11-05T02:15:03.741Z,7.23
2022-11-05T02:16:05.121Z,7.25
2022-11-05T02:17:04.589Z,7.25
2022-11-05T02:18:04.429Z,7.31
2022-11-05T02:19:03.631Z,7.29
2022-11-05T02:20:04.430Z,7.11
2022-11-05T02:21:03.999Z,7.18
2022-11-05T02:22:04.470Z,7.21
2022-11-05T02:23:04.270Z,7.36
2022-11-05T02:24:03.620Z,7.41
2022-11-05T02:25:05.411Z,7.53
2022-11-05T02:26:04.490Z,7.59
2022-11-05T02:27:03.552Z,7.76
2022-11-05T02:28:05.120Z,7.88
2022-11-05T02:29:03.979Z,8.04
2022-11-05T02:30:03.520Z,8.16
2022-11-05T02:31:05.389Z,8.12
2022-11-05T02:32:04.608Z,7.91
2022-11-05T02:33:03.512Z,7.79
2022-11-05T02:34:04.960Z,7.79
2022-11-05T02:35:03.599Z,7.78
2022-11-05T02:36:04.120Z,7.86
2022-11-05T02:37:03.459Z,7.90
2022-11-05T02:38:05.120Z,7.80
2022-11-05T02:39:04.331Z,7.86
2022-11-05T02:40:03.425Z,7.75
2022-11-05T02:41:04.589Z,7.75
2022-11-05T02:42:05.215Z,7.75
2022-11-05T02:43:03.390Z,7.72
2022-11-05T02:44:04.811Z,7.73
2022-11-05T02:45:03.630Z,7.62
2022-11-05T02:46:04.090Z,7.68
2022-11-05T02:47:04.219Z,7.69
2022-11-05T02:48:03.350Z,7.73
2022-11-05T02:49:04.651Z,7.62
2022-11-05T02:50:03.510Z,7.57
2022-11-05T02:51:03.309Z,7.52
2022-11-05T02:52:04.910Z,7.53
2022-11-05T02:53:03.687Z,7.52
2022-11-05T02:54:03.269Z,7.54
2022-11-05T02:55:04.829Z,7.57
2022-11-05T02:56:04.139Z,7.62
2022-11-05T02:57:03.243Z,7.70
2022-11-05T02:58:04.049Z,7.80
2022-11-05T02:59:03.219Z,7.86
2022-11-05T03:00:04.731Z,7.93
2022-11-05T03:01:03.660Z,7.98
2022-11-05T03:02:03.387Z,8.04
2022-11-05T03:03:04.787Z,8.05
2022-11-05T03:04:03.449Z,8.12
2022-11-05T03:05:03.160Z,8.15
2022-11-05T03:06:03.878Z,8.09
2022-11-05T03:07:03.954Z,8.11
2022-11-05T03:08:03.130Z,8.13
2022-11-05T03:09:04.809Z,8.15
2022-11-05T03:10:03.411Z,8.12
2022-11-05T03:11:03.999Z,8.08
2022-11-05T03:12:03.109Z,8.11
2022-11-05T03:13:04.730Z,7.97
2022-11-05T03:14:03.843Z,7.96
2022-11-05T03:15:03.070Z,7.93
2022-11-05T03:16:05.029Z,7.80
2022-11-05T03:17:04.010Z,7.78
2022-11-05T03:18:03.106Z,7.83
2022-11-05T03:19:05.360Z,7.90
2022-11-05T03:20:04.281Z,8.09
2022-11-05T03:21:03.011Z,8.08
2022-11-05T03:22:04.191Z,8.11
2022-11-05T03:23:02.981Z,8.13
2022-11-05T03:24:03.031Z,8.20
2022-11-05T03:25:04.320Z,8.23
2022-11-05T03:26:03.109Z,8.13
2022-11-05T03:27:03.675Z,8.12
2022-11-05T03:28:02.929Z,8.18
2022-11-05T03:29:04.320Z,8.24
2022-11-05T03:30:03.188Z,8.30
2022-11-05T03:31:02.910Z,8.39
2022-11-05T03:32:04.290Z,8.42
2022-11-05T03:33:03.039Z,8.55
2022-11-05T03:34:03.819Z,8.70
2022-11-05T03:35:02.917Z,8.75
2022-11-05T03:36:04.191Z,8.77
2022-11-05T03:37:02.971Z,8.82
2022-11-05T03:38:02.875Z,8.77
2022-11-05T03:39:03.620Z,8.59
2022-11-05T03:40:04.568Z,8.66
2022-11-05T03:41:02.815Z,8.69
2022-11-05T03:42:04.242Z,8.72
2022-11-05T03:43:02.974Z,8.72
2022-11-05T03:44:02.761Z,8.54
2022-11-05T03:45:04.381Z,8.44
2022-11-05T03:46:03.279Z,8.42
2022-11-05T03:47:02.730Z,8.41
2022-11-05T03:48:04.681Z,8.45
2022-11-05T03:49:03.643Z,8.49
2022-11-05T03:50:02.714Z,8.54
2022-11-05T03:51:04.270Z,8.57
2022-11-05T03:52:03.102Z,8.64
2022-11-05T03:53:02.669Z,8.67
2022-11-05T03:54:03.503Z,8.64
2022-11-05T03:55:03.006Z,8.60
2022-11-05T03:56:04.218Z,8.66
2022-11-05T03:57:03.091Z,8.75
2022-11-05T03:58:02.619Z,8.84
2022-11-05T03:59:02.609Z,8.90
2022-11-05T04:00:04.031Z,9.00
2022-11-05T04:01:02.589Z,9.00
2022-11-05T04:02:03.597Z,8.90
2022-11-05T04:03:02.685Z,8.88
2022-11-05T04:04:04.178Z,8.96
2022-11-05T04:05:03.872Z,9.05
2022-11-05T04:06:03.170Z,9.03
2022-11-05T04:07:04.439Z,9.03
2022-11-05T04:08:03.909Z,9.11
2022-11-05T04:09:02.629Z,9.11
2022-11-05T04:10:03.388Z,9.18
2022-11-05T04:11:02.928Z,9.15
2022-11-05T04:12:04.381Z,8.96
2022-11-05T04:13:03.449Z,8.82
2022-11-05T04:14:02.450Z,8.82
2022-11-05T04:15:03.810Z,8.75
2022-11-05T04:16:02.570Z,8.78
2022-11-05T04:17:02.408Z,8.75
2022-11-05T04:18:03.790Z,8.66
2022-11-05T04:19:02.637Z,8.75
2022-11-05T04:20:02.396Z,8.80
2022-11-05T04:21:03.699Z,8.81
2022-11-05T04:22:02.849Z,8.85
2022-11-05T04:23:02.359Z,8.93
2022-11-05T04:24:04.341Z,8.88
2022-11-05T04:25:03.289Z,8.91
2022-11-05T04:26:02.320Z,8.90
2022-11-05T04:27:03.681Z,9.02
2022-11-05T04:28:02.509Z,9.05
2022-11-05T04:29:07.773Z,9.11
2022-11-05T04:30:02.338Z,9.08
2022-11-05T04:31:02.270Z,8.93
2022-11-05T04:32:03.780Z,8.99
2022-11-05T04:33:02.671Z,8.88
2022-11-05T04:34:02.250Z,8.87
2022-11-05T04:35:03.768Z,8.88
2022-11-05T04:36:02.490Z,8.95
2022-11-05T04:37:02.218Z,8.99
2022-11-05T04:38:03.830Z,8.96
2022-11-05T04:39:02.641Z,8.98
2022-11-05T04:40:02.218Z,8.95
2022-11-05T04:41:03.649Z,8.96
2022-11-05T04:42:02.891Z,8.93
2022-11-05T04:43:02.170Z,8.93
2022-11-05T04:44:04.011Z,8.88
2022-11-05T04:45:03.029Z,8.78
2022-11-05T04:46:02.153Z,8.67
2022-11-05T04:47:03.900Z,8.59
2022-11-05T04:48:02.879Z,8.55
2022-11-05T04:49:02.089Z,8.60
2022-11-05T04:50:04.101Z,8.60
2022-11-05T04:51:03.045Z,8.52
2022-11-05T04:52:02.060Z,8.60
2022-11-05T04:53:03.740Z,8.69
2022-11-05T04:54:03.020Z,8.62
2022-11-05T04:55:02.739Z,8.64
2022-11-05T04:56:02.008Z,8.78
2022-11-05T04:57:02.750Z,8.93
2022-11-05T04:58:02.940Z,9.05
2022-11-05T04:59:01.989Z,9.15
2022-11-05T05:00:03.320Z,9.24
2022-11-05T05:01:02.751Z,9.32
2022-11-05T05:02:02.073Z,9.37
2022-11-05T05:03:03.419Z,9.43
2022-11-05T05:04:02.140Z,9.51
2022-11-05T05:05:01.932Z,9.47
2022-11-05T05:06:04.185Z,9.29
2022-11-05T05:07:03.099Z,9.32
2022-11-05T05:08:01.950Z,9.25
2022-11-05T05:09:03.308Z,9.18
2022-11-05T05:10:02.188Z,9.08
2022-11-05T05:11:01.859Z,9.10
2022-11-05T05:12:03.179Z,8.95
2022-11-05T05:13:02.079Z,8.85
2022-11-05T05:14:01.858Z,8.77
2022-11-05T05:15:03.309Z,8.70
2022-11-05T05:16:02.179Z,8.70
2022-11-05T05:17:01.810Z,8.63
2022-11-05T05:18:03.421Z,8.55
2022-11-05T05:19:02.761Z,8.54
2022-11-05T05:20:02.500Z,8.51
2022-11-05T05:21:02.619Z,8.47
2022-11-05T05:22:01.741Z,8.42
2022-11-05T05:23:03.400Z,8.47
2022-11-05T05:24:02.510Z,8.57
2022-11-05T05:25:01.771Z,8.67
2022-11-05T05:26:03.201Z,8.80
2022-11-05T05:27:02.001Z,8.91
2022-11-05T05:28:01.693Z,9.00
2022-11-05T05:29:03.239Z,9.08
2022-11-05T05:30:02.519Z,9.14
2022-11-05T05:31:01.743Z,9.14
2022-11-05T05:32:03.360Z,9.08
2022-11-05T05:33:02.210Z,8.78
2022-11-05T05:34:01.638Z,8.69
2022-11-05T05:35:03.268Z,8.62
2022-11-05T05:36:04.675Z,8.66
2022-11-05T05:37:02.900Z,8.81
2022-11-05T05:38:01.614Z,8.69
2022-11-05T05:39:02.411Z,8.78
2022-11-05T05:40:02.383Z,8.84
2022-11-05T05:41:01.570Z,8.80
2022-11-05T05:42:03.180Z,8.66
2022-11-05T05:43:02.453Z,8.60
2022-11-05T05:44:02.379Z,8.69
2022-11-05T05:45:02.569Z,8.77
2022-11-05T05:46:03.218Z,8.91
2022-11-05T05:47:02.330Z,9.06
2022-11-05T05:48:02.159Z,9.18
2022-11-05T05:49:05.429Z,9.19
2022-11-05T05:50:02.253Z,9.21
2022-11-05T05:51:02.250Z,9.25
2022-11-05T05:52:02.158Z,9.26
2022-11-05T05:53:02.390Z,9.26
2022-11-05T05:54:02.161Z,9.32
2022-11-05T05:55:02.215Z,9.22
2022-11-05T05:56:02.229Z,9.24
2022-11-05T05:57:02.210Z,9.28
2022-11-05T05:58:02.129Z,9.29
2022-11-05T05:59:02.199Z,9.37
2022-11-05T06:00:02.147Z,9.34
2022-11-05T06:01:02.081Z,9.14
2022-11-05T06:02:02.409Z,9.15
2022-11-05T06:03:02.209Z,9.11
2022-11-05T06:04:02.139Z,9.06
2022-11-05T06:05:02.031Z,9.05
2022-11-05T06:06:02.160Z,9.14
2022-11-05T06:07:02.010Z,9.02
2022-11-05T06:08:02.288Z,9.02
2022-11-05T06:09:02.060Z,9.00
2022-11-05T06:10:02.100Z,9.02
2022-11-05T06:11:02.047Z,8.99
2022-11-05T06:12:01.890Z,8.99
2022-11-05T06:13:02.030Z,8.95
2022-11-05T06:14:01.829Z,8.91
2022-11-05T06:15:02.033Z,8.91
2022-11-05T06:16:01.911Z,8.88
2022-11-05T06:17:02.219Z,8.82
2022-11-05T06:18:01.879Z,8.73
2022-11-05T06:19:01.932Z,8.62
2022-11-05T06:20:01.812Z,8.62
2022-11-05T06:21:02.215Z,8.62
2022-11-05T06:22:02.834Z,8.62
2022-11-05T06:23:02.950Z,8.64
2022-11-05T06:24:02.939Z,8.64
2022-11-05T06:25:02.930Z,8.66
2022-11-05T06:26:02.809Z,8.67
2022-11-05T06:27:02.801Z,8.66
2022-11-05T06:28:01.930Z,8.62
2022-11-05T06:29:01.782Z,8.59
2022-11-05T06:30:02.432Z,8.62
2022-11-05T06:31:01.739Z,8.57
2022-11-05T06:32:01.892Z,8.63
2022-11-05T06:33:01.819Z,8.59
2022-11-05T06:34:01.879Z,8.49
2022-11-05T06:35:01.670Z,8.49
2022-11-05T06:36:01.962Z,8.52
2022-11-05T06:37:01.747Z,8.49
2022-11-05T06:38:01.793Z,8.55
2022-11-05T06:39:01.799Z,8.54
2022-11-05T06:40:01.805Z,8.54
2022-11-05T06:41:07.142Z,8.51
2022-11-05T06:42:18.095Z,8.57
2022-11-05T06:43:01.697Z,8.63
2022-11-05T06:44:01.519Z,8.66
2022-11-05T06:45:01.799Z,8.70
2022-11-05T06:46:01.666Z,8.81
2022-11-05T06:47:01.829Z,8.88
2022-11-05T06:48:02.337Z,8.96
2022-11-05T06:49:01.672Z,9.05
2022-11-05T06:50:02.617Z,9.19
2022-11-05T06:51:02.813Z,9.29
2022-11-05T06:52:00.848Z,9.40
2022-11-05T06:53:02.713Z,9.51
2022-11-05T06:54:01.549Z,9.59
2022-11-05T06:55:02.787Z,9.69
2022-11-05T06:56:02.488Z,9.67
2022-11-05T06:57:01.598Z,9.75
2022-11-05T06:58:02.519Z,9.67
2022-11-05T06:59:02.417Z,9.62
2022-11-05T07:00:07.290Z,9.67
2022-11-05T07:01:02.481Z,9.75
2022-11-05T07:02:01.585Z,9.77
2022-11-05T07:03:01.359Z,9.88
2022-11-05T07:04:02.570Z,10.01
2022-11-05T07:05:01.329Z,10.16
2022-11-05T07:06:01.598Z,10.30
2022-11-05T07:07:01.389Z,10.40
2022-11-05T07:08:01.518Z,10.53
2022-11-05T07:09:01.368Z,10.54
2022-11-05T07:10:01.549Z,10.60
2022-11-05T07:11:01.377Z,10.49
2022-11-05T07:12:01.519Z,10.33
2022-11-05T07:13:06.615Z,10.23
2022-11-05T07:14:02.177Z,10.04
2022-11-05T07:15:01.380Z,9.93
2022-11-05T07:16:01.789Z,9.93
2022-11-05T07:17:01.450Z,9.97
2022-11-05T07:18:01.598Z,9.88
2022-11-05T07:19:01.551Z,9.91
2022-11-05T07:20:01.719Z,9.93
2022-11-05T07:21:01.402Z,9.86
2022-11-05T07:22:01.349Z,9.88
2022-11-05T07:23:01.342Z,9.83
2022-11-05T07:24:01.588Z,9.85
2022-11-05T07:25:01.629Z,9.91
2022-11-05T07:26:01.288Z,9.85
2022-11-05T07:27:01.629Z,9.75
2022-11-05T07:28:01.189Z,9.82
2022-11-05T07:29:02.009Z,9.86
2022-11-05T07:30:00.453Z,9.98
2022-11-05T07:31:01.358Z,10.06
2022-11-05T07:32:01.428Z,10.02
2022-11-05T07:33:01.070Z,9.98
2022-11-05T07:34:01.261Z,9.86
2022-11-05T07:35:01.109Z,9.91
2022-11-05T07:36:01.180Z,9.75
2022-11-05T07:37:01.038Z,9.72
2022-11-05T07:38:00.401Z,9.67
2022-11-05T07:39:01.248Z,9.67
2022-11-05T07:40:01.159Z,9.72
2022-11-05T07:41:01.265Z,9.69
2022-11-05T07:42:01.234Z,9.67
2022-11-05T07:43:01.800Z,9.64
2022-11-05T07:44:01.648Z,9.73
2022-11-05T07:45:00.302Z,9.73
2022-11-05T07:46:00.925Z,9.79
2022-11-05T07:47:00.259Z,9.91
2022-11-05T07:48:00.919Z,9.98
2022-11-05T07:49:01.249Z,9.95
2022-11-05T07:50:00.231Z,9.93
2022-11-05T07:51:01.089Z,9.95
2022-11-05T07:52:01.318Z,10.01
2022-11-05T07:53:01.019Z,10.01
2022-11-05T07:54:01.050Z,10.06
2022-11-05T07:55:00.201Z,9.97
2022-11-05T07:56:02.131Z,10.06
2022-11-05T07:57:01.220Z,10.06
2022-11-05T07:58:01.629Z,10.08
2022-11-05T07:59:01.038Z,10.09
2022-11-05T08:00:00.183Z,10.22
2022-11-05T08:01:01.975Z,10.22
2022-11-05T08:02:01.092Z,10.30
2022-11-05T08:03:06.837Z,10.34
2022-11-05T08:04:00.972Z,10.52
2022-11-05T08:05:00.162Z,10.65
2022-11-05T08:06:02.083Z,10.75
2022-11-05T08:07:00.679Z,10.82
2022-11-05T08:08:00.880Z,10.92
2022-11-05T08:09:00.720Z,11.04
2022-11-05T08:10:00.039Z,11.04
2022-11-05T08:11:00.809Z,10.95
2022-11-05T08:12:03.094Z,10.93
2022-11-05T08:13:01.410Z,11.14
2022-11-05T08:14:00.800Z,11.23
2022-11-05T08:14:59.969Z,11.28
2022-11-05T08:16:00.740Z,11.29
2022-11-05T08:17:00.760Z,11.22
2022-11-05T08:18:00.612Z,11.19
2022-11-05T08:19:00.792Z,11.17
2022-11-05T08:20:00.620Z,11.22
2022-11-05T08:21:00.749Z,11.28
2022-11-05T08:22:00.591Z,11.33
2022-11-05T08:22:59.895Z,11.40
2022-11-05T08:24:00.620Z,11.29
2022-11-05T08:25:06.456Z,11.35
2022-11-05T08:26:00.634Z,11.47
2022-11-05T08:27:01.759Z,11.56
2022-11-05T08:28:01.608Z,11.59
2022-11-05T08:29:01.778Z,11.48
2022-11-05T08:30:01.638Z,11.47
2022-11-05T08:31:01.709Z,11.56
2022-11-05T08:32:00.639Z,11.80
2022-11-05T08:33:00.401Z,11.91
2022-11-05T08:34:02.621Z,11.80
2022-11-05T08:35:00.371Z,11.79
2022-11-05T08:36:00.548Z,11.90
2022-11-05T08:37:00.489Z,11.88
2022-11-05T08:38:00.542Z,11.91
2022-11-05T08:39:00.412Z,11.97
2022-11-05T08:40:00.729Z,11.91
2022-11-05T08:41:00.427Z,11.79
2022-11-05T08:42:00.599Z,11.66
2022-11-05T08:43:00.499Z,11.66
2022-11-05T08:44:00.440Z,11.72
2022-11-05T08:45:00.400Z,11.90
2022-11-05T08:46:00.429Z,11.83
2022-11-05T08:47:00.390Z,11.86
2022-11-05T08:47:59.678Z,11.91
2022-11-05T08:49:00.398Z,11.95
2022-11-05T08:50:00.409Z,11.99
2022-11-05T08:51:00.409Z,12.06
2022-11-05T08:52:00.399Z,12.03
2022-11-05T08:53:00.441Z,11.97
2022-11-05T08:54:00.508Z,11.99
2022-11-05T08:55:01.410Z,12.00
2022-11-05T08:56:00.269Z,12.02
2022-11-05T08:57:01.349Z,12.00
2022-11-05T08:58:01.299Z,12.15
2022-11-05T08:59:01.349Z,12.07
2022-11-05T09:00:00.300Z,12.10
2022-11-05T09:01:05.009Z,12.05
2022-11-05T09:02:00.403Z,11.95
2022-11-05T09:03:00.102Z,12.09
2022-11-05T09:04:01.340Z,12.25
2022-11-05T09:05:00.093Z,12.39
2022-11-05T09:06:00.358Z,12.27
2022-11-05T09:07:01.072Z,12.22
2022-11-05T09:08:01.611Z,12.35
2022-11-05T09:09:01.208Z,12.45
2022-11-05T09:10:00.264Z,12.53
2022-11-05T09:11:00.130Z,12.57
2022-11-05T09:12:16.387Z,12.54
2022-11-05T09:13:00.369Z,12.58
2022-11-05T09:13:59.450Z,12.51
2022-11-05T09:15:00.939Z,12.54
2022-11-05T09:16:00.729Z,12.82
2022-11-05T09:17:00.131Z,12.80
2022-11-05T09:17:59.950Z,12.94
2022-11-05T09:19:01.187Z,13.05
2022-11-05T09:20:01.019Z,13.05
2022-11-05T09:21:00.131Z,13.26
2022-11-05T09:21:59.980Z,13.33
2022-11-05T09:23:00.128Z,13.37
2022-11-05T09:24:00.091Z,13.45
2022-11-05T09:25:00.099Z,13.80
2022-11-05T09:25:59.948Z,14.05
2022-11-05T09:26:59.227Z,14.45
2022-11-05T09:28:01.310Z,14.96
2022-11-05T09:29:00.009Z,15.27
2022-11-05T09:30:00.678Z,15.95
2022-11-05T09:31:00.088Z,16.56
2022-11-05T09:32:00.037Z,17.91
2022-11-05T09:32:59.787Z,19.54
2022-11-05T09:33:59.170Z,20.63
2022-11-05T09:34:59.821Z,19.14
2022-11-05T09:35:59.157Z,18.83
2022-11-05T09:36:59.918Z,18.63
2022-11-05T09:38:01.259Z,18.48
2022-11-05T09:38:59.808Z,19.56
2022-11-05T09:39:59.752Z,20.10
2022-11-05T09:40:59.772Z,20.00
2022-11-05T09:42:00.068Z,19.14
2022-11-05T09:42:59.787Z,18.52
2022-11-05T09:43:59.868Z,20.06
2022-11-05T09:44:59.768Z,21.73
2022-11-05T09:46:00.980Z,22.40
2022-11-05T09:46:59.977Z,22.99
2022-11-05T09:47:59.807Z,22.98
2022-11-05T09:48:59.728Z,23.46
2022-11-05T09:49:59.568Z,22.68
2022-11-05T09:50:59.778Z,21.85
2022-11-05T09:51:59.628Z,22.25
2022-11-05T09:53:00.008Z,22.45
2022-11-05T09:53:58.950Z,22.07
2022-11-05T09:54:59.797Z,21.77
2022-11-05T09:55:59.610Z,21.36
2022-11-05T09:56:59.857Z,20.40
2022-11-05T09:57:59.640Z,19.56
2022-11-05T09:58:59.760Z,19.04
2022-11-05T09:59:59.642Z,18.80
2022-11-05T10:00:59.776Z,17.94
2022-11-05T10:01:59.730Z,17.29
2022-11-05T10:02:59.719Z,16.89
2022-11-05T10:04:00.008Z,17.20
2022-11-05T10:05:03.548Z,17.42
2022-11-05T10:05:59.808Z,17.56
2022-11-05T10:06:58.838Z,17.64
2022-11-05T10:07:59.767Z,17.73
2022-11-05T10:08:59.601Z,17.48
2022-11-05T10:09:59.738Z,16.54
2022-11-05T10:10:58.838Z,16.08
2022-11-05T10:11:59.570Z,16.66
2022-11-05T10:12:59.418Z,17.22
2022-11-05T10:13:59.597Z,17.51
2022-11-05T10:14:59.447Z,18.18
2022-11-05T10:15:59.719Z,17.86
2022-11-05T10:16:59.470Z,16.76
2022-11-05T10:17:59.837Z,17.01
2022-11-05T10:18:59.547Z,19.00
2022-11-05T10:19:59.487Z,19.69
2022-11-05T10:20:58.677Z,19.37
2022-11-05T10:22:06.557Z,18.74
2022-11-05T10:22:59.542Z,18.99
2022-11-05T10:23:59.291Z,20.25
2022-11-05T10:24:59.470Z,20.43
2022-11-05T10:25:59.278Z,19.88
2022-11-05T10:26:59.387Z,19.55
2022-11-05T10:27:59.360Z,19.46
2022-11-05T10:28:59.608Z,19.62
2022-11-05T10:29:59.539Z,19.00
2022-11-05T10:30:59.421Z,18.73
2022-11-05T10:31:58.559Z,18.31
2022-11-05T10:32:59.459Z,17.94
2022-11-05T10:33:58.538Z,18.01
2022-11-05T10:34:59.228Z,17.86
2022-11-05T10:35:59.368Z,18.23
2022-11-05T10:36:59.317Z,18.25
2022-11-05T10:37:59.297Z,18.09
2022-11-05T10:38:59.098Z,17.80
2022-11-05T10:39:58.509Z,17.71
2022-11-05T10:40:59.347Z,17.44
2022-11-05T10:41:59.459Z,17.89
2022-11-05T10:42:59.288Z,17.39
2022-11-05T10:43:58.438Z,17.64
2022-11-05T10:44:59.198Z,17.65
2022-11-05T10:45:58.429Z,17.20
2022-11-05T10:46:59.769Z,17.01
2022-11-05T10:47:59.197Z,16.96
2022-11-05T10:48:59.179Z,16.86
2022-11-05T10:49:59.180Z,16.66
2022-11-05T10:50:59.189Z,16.51
2022-11-05T10:51:58.977Z,16.53
2022-11-05T10:52:59.262Z,16.39
2022-11-05T10:54:02.140Z,16.38
2022-11-05T10:54:59.319Z,16.29
2022-11-05T10:55:58.939Z,16.08
2022-11-05T10:56:59.148Z,15.64
2022-11-05T10:57:58.924Z,15.42
2022-11-05T10:58:59.309Z,15.27
2022-11-05T10:59:58.969Z,15.19
2022-11-05T11:00:59.149Z,15.02
2022-11-05T11:01:59.274Z,15.00
2022-11-05T11:02:59.159Z,15.15
2022-11-05T11:03:59.090Z,15.17
2022-11-05T11:04:59.050Z,15.18
2022-11-05T11:05:59.051Z,15.18
2022-11-05T11:06:58.759Z,15.11
2022-11-05T11:07:58.962Z,14.84
2022-11-05T11:08:58.830Z,14.70
2022-11-05T11:09:59.059Z,14.55
2022-11-05T11:10:58.823Z,14.40
2022-11-05T11:11:59.932Z,14.37
2022-11-05T11:12:58.849Z,14.37
2022-11-05T11:13:58.958Z,14.40
2022-11-05T11:14:58.799Z,14.32
2022-11-05T11:15:59.980Z,14.26
2022-11-05T11:16:58.939Z,14.11
2022-11-05T11:17:58.989Z,14.13
2022-11-05T11:18:59.790Z,14.11
2022-11-05T11:19:59.899Z,14.13
2022-11-05T11:20:59.971Z,14.23
2022-11-05T11:21:59.740Z,14.22
2022-11-05T11:22:59.268Z,14.28
2022-11-05T11:23:58.718Z,14.36
2022-11-05T11:24:59.948Z,14.40
2022-11-05T11:25:59.978Z,14.47
2022-11-05T11:26:59.080Z,14.53
2022-11-05T11:27:58.673Z,14.55
2022-11-05T11:28:59.840Z,14.53
2022-11-05T11:29:58.689Z,14.30
2022-11-05T11:30:58.903Z,14.32
2022-11-05T11:31:58.973Z,14.25
2022-11-05T11:32:58.965Z,14.25
2022-11-05T11:33:58.729Z,14.18
2022-11-05T11:34:58.903Z,14.01
2022-11-05T11:35:58.824Z,13.82
2022-11-05T11:36:58.499Z,13.78
2022-11-05T11:37:58.789Z,13.80
2022-11-05T11:38:58.489Z,13.77
2022-11-05T11:39:59.759Z,13.72
2022-11-05T11:40:58.528Z,13.70
2022-11-05T11:41:58.810Z,13.60
2022-11-05T11:42:58.524Z,13.57
2022-11-05T11:43:59.760Z,13.55
2022-11-05T11:44:59.509Z,13.53
2022-11-05T11:46:04.880Z,13.53
2022-11-05T11:46:58.550Z,13.53
2022-11-05T11:47:58.659Z,13.63
2022-11-05T11:48:58.459Z,13.68
2022-11-05T11:49:58.798Z,13.70
2022-11-05T11:50:58.539Z,13.71
2022-11-05T11:51:58.321Z,13.67
2022-11-05T11:52:58.458Z,13.71
2022-11-05T11:53:58.341Z,13.78
2022-11-05T11:54:58.559Z,13.75
2022-11-05T11:55:58.329Z,13.77
2022-11-05T11:56:58.448Z,13.75
2022-11-05T11:57:58.290Z,13.77
2022-11-05T11:58:58.909Z,13.74
2022-11-05T12:00:08.902Z,13.68
2022-11-05T12:00:58.542Z,13.68
2022-11-05T12:01:58.570Z,13.68
2022-11-05T12:03:01.942Z,13.64
2022-11-05T12:03:58.319Z,13.65
2022-11-05T12:04:58.530Z,13.71
2022-11-05T12:05:59.469Z,13.70
2022-11-05T12:06:59.419Z,13.70
2022-11-05T12:07:59.298Z,13.67
2022-11-05T12:09:05.143Z,13.60
2022-11-05T12:09:58.470Z,13.52
2022-11-05T12:10:58.170Z,13.43
2022-11-05T12:11:59.379Z,13.47
2022-11-05T12:12:58.851Z,13.45
2022-11-05T12:13:58.399Z,13.43
2022-11-05T12:14:59.299Z,13.31
2022-11-05T12:15:58.320Z,13.35
2022-11-05T12:16:58.280Z,13.35
2022-11-05T12:17:58.351Z,13.35
2022-11-05T12:18:58.389Z,13.33
2022-11-05T12:19:58.343Z,13.37
2022-11-05T12:20:59.179Z,13.43
2022-11-05T12:21:59.243Z,13.46
2022-11-05T12:22:59.559Z,13.50
2022-11-05T12:23:59.039Z,13.59
2022-11-05T12:24:59.783Z,13.57
2022-11-05T12:25:58.428Z,13.59
2022-11-05T12:26:59.780Z,13.64
2022-11-05T12:27:59.268Z,13.60
2022-11-05T12:29:17.918Z,13.53
2022-11-05T12:29:58.280Z,13.59
2022-11-05T12:30:58.160Z,13.64
2022-11-05T12:31:58.029Z,13.65
2022-11-05T12:32:58.369Z,13.70
2022-11-05T12:33:57.970Z,13.74
2022-11-05T12:34:58.138Z,13.78
2022-11-05T12:35:58.283Z,13.82
2022-11-05T12:36:58.291Z,13.86
2022-11-05T12:37:59.010Z,13.83
2022-11-05T12:38:57.968Z,13.85
2022-11-05T12:39:59.210Z,13.82
2022-11-05T12:40:58.869Z,13.83
2022-11-05T12:41:58.041Z,13.75
2022-11-05T12:42:58.898Z,13.71
2022-11-05T12:43:59.041Z,13.65
2022-11-05T12:44:58.839Z,13.65
2022-11-05T12:45:58.018Z,13.59
2022-11-05T12:46:58.909Z,13.50
2022-11-05T12:47:59.036Z,13.45
2022-11-05T12:48:58.120Z,13.38
2022-11-05T12:49:58.970Z,13.22
2022-11-05T12:50:57.838Z,13.18
2022-11-05T12:51:58.980Z,13.19
2022-11-05T12:52:58.962Z,13.12
2022-11-05T12:53:57.680Z,13.09
2022-11-05T12:54:58.350Z,13.11
2022-11-05T12:55:57.708Z,13.11
2022-11-05T12:56:57.868Z,13.11
2022-11-05T12:57:57.770Z,13.06
2022-11-05T12:58:57.949Z,13.00
2022-11-05T12:59:57.029Z,12.94
2022-11-05T13:00:57.856Z,12.83
2022-11-05T13:01:57.998Z,12.83
2022-11-05T13:02:57.800Z,12.88
2022-11-05T13:03:57.730Z,12.96
2022-11-05T13:04:57.890Z,13.11
2022-11-05T13:06:01.579Z,13.16
2022-11-05T13:06:57.899Z,13.21